sensor_id;sensor_type;location;lat;lon;timestamp;pressure;altitude;pressure_sealevel;temperature;humidity
83185;BME280;73080;48.768;11.528;2024-01-25T00:01:34;98024.81;;;7.55;68.24
83185;BME280;73080;48.768;11.528;2024-01-25T00:03:59;98017.97;;;7.61;68.05
83185;BME280;73080;48.768;11.528;2024-01-25T00:06:24;98015.94;;;7.50;68.34
83185;BME280;73080;48.768;11.528;2024-01-25T00:08:50;98012.53;;;7.49;68.63
83185;BME280;73080;48.768;11.528;2024-01-25T00:11:15;98015.75;;;7.58;68.66
83185;BME280;73080;48.768;11.528;2024-01-25T00:13:40;98015.94;;;7.50;68.98
83185;BME280;73080;48.768;11.528;2024-01-25T00:16:05;98014.53;;;7.47;69.58
83185;BME280;73080;48.768;11.528;2024-01-25T00:18:31;98014.94;;;7.51;69.31
83185;BME280;73080;48.768;11.528;2024-01-25T00:20:56;98015.50;;;7.46;69.49
83185;BME280;73080;48.768;11.528;2024-01-25T00:23:21;98008.13;;;7.56;69.50
83185;BME280;73080;48.768;11.528;2024-01-25T00:25:46;98014.34;;;7.55;69.54
83185;BME280;73080;48.768;11.528;2024-01-25T00:28:12;98012.88;;;7.39;70.31
83185;BME280;73080;48.768;11.528;2024-01-25T00:30:37;98003.84;;;7.35;70.43
83185;BME280;73080;48.768;11.528;2024-01-25T00:33:03;98017.94;;;7.48;69.99
83185;BME280;73080;48.768;11.528;2024-01-25T00:35:28;98009.28;;;7.40;70.25
83185;BME280;73080;48.768;11.528;2024-01-25T00:37:54;98013.94;;;7.52;69.83
83185;BME280;73080;48.768;11.528;2024-01-25T00:40:19;98017.75;;;7.49;70.04
83185;BME280;73080;48.768;11.528;2024-01-25T00:42:46;98015.91;;;7.43;70.34
83185;BME280;73080;48.768;11.528;2024-01-25T00:45:12;98008.69;;;7.45;70.39
83185;BME280;73080;48.768;11.528;2024-01-25T00:47:38;98016.53;;;7.52;70.02
83185;BME280;73080;48.768;11.528;2024-01-25T00:50:04;98005.06;;;7.53;70.40
83185;BME280;73080;48.768;11.528;2024-01-25T00:52:30;97997.66;;;7.50;70.16
83185;BME280;73080;48.768;11.528;2024-01-25T00:54:55;98002.28;;;7.48;70.46
83185;BME280;73080;48.768;11.528;2024-01-25T00:57:21;98000.88;;;7.58;70.07
83185;BME280;73080;48.768;11.528;2024-01-25T00:59:46;98009.94;;;7.62;70.13
83185;BME280;73080;48.768;11.528;2024-01-25T01:02:12;98013.34;;;7.63;70.32
83185;BME280;73080;48.768;11.528;2024-01-25T01:04:38;98010.13;;;7.61;70.26
83185;BME280;73080;48.768;11.528;2024-01-25T01:07:04;98015.16;;;7.62;70.36
83185;BME280;73080;48.768;11.528;2024-01-25T01:09:30;98017.16;;;7.60;70.72
83185;BME280;73080;48.768;11.528;2024-01-25T01:11:55;98018.19;;;7.66;70.42
83185;BME280;73080;48.768;11.528;2024-01-25T01:14:20;98029.44;;;7.73;70.31
83185;BME280;73080;48.768;11.528;2024-01-25T01:16:45;98026.38;;;7.50;70.95
83185;BME280;73080;48.768;11.528;2024-01-25T01:19:11;98031.84;;;7.61;70.90
83185;BME280;73080;48.768;11.528;2024-01-25T01:21:36;98043.13;;;7.75;70.34
83185;BME280;73080;48.768;11.528;2024-01-25T01:24:02;98046.38;;;7.77;70.38
83185;BME280;73080;48.768;11.528;2024-01-25T01:26:27;98049.00;;;7.84;69.95
83185;BME280;73080;48.768;11.528;2024-01-25T01:28:53;98049.16;;;7.69;70.75
83185;BME280;73080;48.768;11.528;2024-01-25T01:31:18;98047.38;;;7.76;70.79
83185;BME280;73080;48.768;11.528;2024-01-25T01:33:43;98044.50;;;7.58;71.11
83185;BME280;73080;48.768;11.528;2024-01-25T01:36:08;98046.91;;;7.59;71.04
83185;BME280;73080;48.768;11.528;2024-01-25T01:38:33;98037.25;;;7.60;71.07
83185;BME280;73080;48.768;11.528;2024-01-25T01:40:59;98031.03;;;7.61;71.35
83185;BME280;73080;48.768;11.528;2024-01-25T01:43:24;98040.06;;;7.58;71.89
83185;BME280;73080;48.768;11.528;2024-01-25T01:45:49;98026.19;;;7.51;72.00
83185;BME280;73080;48.768;11.528;2024-01-25T01:48:16;98030.00;;;7.49;71.93
83185;BME280;73080;48.768;11.528;2024-01-25T01:50:43;98021.53;;;7.47;72.17
83185;BME280;73080;48.768;11.528;2024-01-25T01:53:09;98012.13;;;7.52;71.72
83185;BME280;73080;48.768;11.528;2024-01-25T01:55:35;98004.47;;;7.44;72.05
83185;BME280;73080;48.768;11.528;2024-01-25T01:58:00;98002.28;;;7.54;71.56
83185;BME280;73080;48.768;11.528;2024-01-25T02:00:26;97995.84;;;7.50;71.42
83185;BME280;73080;48.768;11.528;2024-01-25T02:02:51;97992.03;;;7.59;71.34
83185;BME280;73080;48.768;11.528;2024-01-25T02:05:16;98001.25;;;7.49;71.33
83185;BME280;73080;48.768;11.528;2024-01-25T02:07:42;98006.31;;;7.63;70.71
83185;BME280;73080;48.768;11.528;2024-01-25T02:10:08;97989.41;;;7.59;71.41
83185;BME280;73080;48.768;11.528;2024-01-25T02:12:34;97987.19;;;7.43;72.30
83185;BME280;73080;48.768;11.528;2024-01-25T02:14:59;97986.78;;;7.53;71.90
83185;BME280;73080;48.768;11.528;2024-01-25T02:17:24;97991.22;;;7.59;71.45
83185;BME280;73080;48.768;11.528;2024-01-25T02:19:49;97994.63;;;7.53;72.10
83185;BME280;73080;48.768;11.528;2024-01-25T02:22:17;97994.03;;;7.57;71.68
83185;BME280;73080;48.768;11.528;2024-01-25T02:24:45;97998.84;;;7.54;71.69
83185;BME280;73080;48.768;11.528;2024-01-25T02:27:10;98001.69;;;7.59;71.63
83185;BME280;73080;48.768;11.528;2024-01-25T02:29:36;98002.09;;;7.56;71.76
83185;BME280;73080;48.768;11.528;2024-01-25T02:32:01;98005.47;;;7.50;71.87
83185;BME280;73080;48.768;11.528;2024-01-25T02:34:26;98006.69;;;7.54;71.80
83185;BME280;73080;48.768;11.528;2024-01-25T02:36:51;98003.06;;;7.48;71.88
83185;BME280;73080;48.768;11.528;2024-01-25T02:39:16;98002.28;;;7.54;71.93
83185;BME280;73080;48.768;11.528;2024-01-25T02:41:42;98001.25;;;7.42;72.00
83185;BME280;73080;48.768;11.528;2024-01-25T02:44:08;97994.44;;;7.48;71.84
83185;BME280;73080;48.768;11.528;2024-01-25T02:46:33;97993.81;;;7.52;71.57
83185;BME280;73080;48.768;11.528;2024-01-25T02:48:58;97991.00;;;7.47;71.71
83185;BME280;73080;48.768;11.528;2024-01-25T02:51:23;97986.59;;;7.48;71.82
83185;BME280;73080;48.768;11.528;2024-01-25T02:53:49;97995.84;;;7.57;71.38
83185;BME280;73080;48.768;11.528;2024-01-25T02:56:14;97995.41;;;7.40;71.92
83185;BME280;73080;48.768;11.528;2024-01-25T02:58:39;97990.19;;;7.53;71.30
83185;BME280;73080;48.768;11.528;2024-01-25T03:01:04;97990.84;;;7.55;71.64
83185;BME280;73080;48.768;11.528;2024-01-25T03:03:30;97998.03;;;7.47;72.10
83185;BME280;73080;48.768;11.528;2024-01-25T03:05:55;97992.38;;;7.36;72.47
83185;BME280;73080;48.768;11.528;2024-01-25T03:08:20;97993.59;;;7.34;72.37
83185;BME280;73080;48.768;11.528;2024-01-25T03:10:46;97999.66;;;7.48;71.93
83185;BME280;73080;48.768;11.528;2024-01-25T03:13:11;98002.41;;;7.39;71.89
83185;BME280;73080;48.768;11.528;2024-01-25T03:15:37;97998.84;;;7.54;71.64
83185;BME280;73080;48.768;11.528;2024-01-25T03:18:02;98010.13;;;7.54;71.51
83185;BME280;73080;48.768;11.528;2024-01-25T03:20:27;98021.56;;;7.60;71.80
83185;BME280;73080;48.768;11.528;2024-01-25T03:22:52;98021.19;;;7.63;71.53
83185;BME280;73080;48.768;11.528;2024-01-25T03:25:18;98013.75;;;7.66;71.37
83185;BME280;73080;48.768;11.528;2024-01-25T03:27:43;98019.78;;;7.60;71.58
83185;BME280;73080;48.768;11.528;2024-01-25T03:30:09;98023.81;;;7.63;71.65
83185;BME280;73080;48.768;11.528;2024-01-25T03:32:35;98030.84;;;7.62;71.52
83185;BME280;73080;48.768;11.528;2024-01-25T03:35:01;98029.44;;;7.66;71.36
83185;BME280;73080;48.768;11.528;2024-01-25T03:37:26;98024.81;;;7.55;71.90
83185;BME280;73080;48.768;11.528;2024-01-25T03:39:51;98022.19;;;7.55;71.92
83185;BME280;73080;48.768;11.528;2024-01-25T03:42:17;98027.59;;;7.54;71.81
83185;BME280;73080;48.768;11.528;2024-01-25T03:44:42;98032.66;;;7.55;71.85
83185;BME280;73080;48.768;11.528;2024-01-25T03:47:07;98035.59;;;7.39;72.45
83185;BME280;73080;48.768;11.528;2024-01-25T03:49:32;98037.44;;;7.52;72.27
83185;BME280;73080;48.768;11.528;2024-01-25T03:51:58;98048.47;;;7.40;72.21
83185;BME280;73080;48.768;11.528;2024-01-25T03:54:26;98035.22;;;7.42;72.45
83185;BME280;73080;48.768;11.528;2024-01-25T03:56:51;98034.81;;;7.45;72.08
83185;BME280;73080;48.768;11.528;2024-01-25T03:59:17;98037.78;;;7.35;72.19
83185;BME280;73080;48.768;11.528;2024-01-25T04:01:43;98038.00;;;7.34;72.16
83185;BME280;73080;48.768;11.528;2024-01-25T04:04:09;98038.16;;;7.32;72.32
83185;BME280;73080;48.768;11.528;2024-01-25T04:06:34;98045.59;;;7.29;72.04
83185;BME280;73080;48.768;11.528;2024-01-25T04:08:59;98046.03;;;7.39;71.79
83185;BME280;73080;48.768;11.528;2024-01-25T04:11:24;98060.53;;;7.41;71.49
83185;BME280;73080;48.768;11.528;2024-01-25T04:13:49;98059.75;;;7.48;71.62
83185;BME280;73080;48.768;11.528;2024-01-25T04:16:15;98060.72;;;7.33;72.06
83185;BME280;73080;48.768;11.528;2024-01-25T04:18:40;98062.66;;;7.25;72.39
83185;BME280;73080;48.768;11.528;2024-01-25T04:21:05;98057.06;;;7.28;71.81
83185;BME280;73080;48.768;11.528;2024-01-25T04:23:30;98052.16;;;7.18;72.81
83185;BME280;73080;48.768;11.528;2024-01-25T04:25:55;98051.19;;;7.19;72.81
83185;BME280;73080;48.768;11.528;2024-01-25T04:28:21;98061.06;;;7.30;72.39
83185;BME280;73080;48.768;11.528;2024-01-25T04:30:46;98059.47;;;7.29;72.33
83185;BME280;73080;48.768;11.528;2024-01-25T04:33:11;98057.47;;;7.31;72.20
83185;BME280;73080;48.768;11.528;2024-01-25T04:35:36;98062.66;;;7.25;72.56
83185;BME280;73080;48.768;11.528;2024-01-25T04:38:01;98067.50;;;7.28;72.66
83185;BME280;73080;48.768;11.528;2024-01-25T04:40:27;98083.97;;;7.28;72.30
83185;BME280;73080;48.768;11.528;2024-01-25T04:42:52;98079.59;;;7.35;72.09
83185;BME280;73080;48.768;11.528;2024-01-25T04:45:17;98078.34;;;7.31;72.16
83185;BME280;73080;48.768;11.528;2024-01-25T04:47:42;98088.69;;;7.53;71.03
83185;BME280;73080;48.768;11.528;2024-01-25T04:50:08;98095.13;;;7.50;71.18
83185;BME280;73080;48.768;11.528;2024-01-25T04:52:33;98096.38;;;7.54;70.99
83185;BME280;73080;48.768;11.528;2024-01-25T04:54:58;98104.00;;;7.56;71.04
83185;BME280;73080;48.768;11.528;2024-01-25T04:57:24;98105.38;;;7.52;70.62
83185;BME280;73080;48.768;11.528;2024-01-25T04:59:49;98109.66;;;7.66;70.24
83185;BME280;73080;48.768;11.528;2024-01-25T05:02:14;98112.66;;;7.56;70.18
83185;BME280;73080;48.768;11.528;2024-01-25T05:04:40;98110.19;;;7.41;70.74
83185;BME280;73080;48.768;11.528;2024-01-25T05:07:05;98110.13;;;7.35;70.67
83185;BME280;73080;48.768;11.528;2024-01-25T05:09:30;98093.00;;;7.26;70.47
83185;BME280;73080;48.768;11.528;2024-01-25T05:11:56;98102.03;;;7.23;70.55
83185;BME280;73080;48.768;11.528;2024-01-25T05:14:21;98099.66;;;7.28;70.26
83185;BME280;73080;48.768;11.528;2024-01-25T05:16:46;98103.69;;;7.31;69.81
83185;BME280;73080;48.768;11.528;2024-01-25T05:19:11;98104.72;;;7.36;69.22
83185;BME280;73080;48.768;11.528;2024-01-25T05:21:37;98100.81;;;7.19;69.43
83185;BME280;73080;48.768;11.528;2024-01-25T05:24:02;98101.84;;;7.25;69.05
83185;BME280;73080;48.768;11.528;2024-01-25T05:26:27;98110.91;;;7.29;69.24
83185;BME280;73080;48.768;11.528;2024-01-25T05:28:52;98105.47;;;7.30;68.89
83185;BME280;73080;48.768;11.528;2024-01-25T05:31:18;98114.72;;;7.26;69.12
83185;BME280;73080;48.768;11.528;2024-01-25T05:33:43;98111.91;;;7.28;68.57
83185;BME280;73080;48.768;11.528;2024-01-25T05:36:08;98111.94;;;7.34;68.65
83185;BME280;73080;48.768;11.528;2024-01-25T05:38:33;98108.88;;;7.24;68.98
83185;BME280;73080;48.768;11.528;2024-01-25T05:40:59;98109.03;;;7.16;69.11
83185;BME280;73080;48.768;11.528;2024-01-25T05:43:24;98106.88;;;7.26;68.81
83185;BME280;73080;48.768;11.528;2024-01-25T05:45:49;98110.34;;;7.33;68.29
83185;BME280;73080;48.768;11.528;2024-01-25T05:48:15;98112.72;;;7.28;68.41
83185;BME280;73080;48.768;11.528;2024-01-25T05:50:40;98115.81;;;7.10;68.58
83185;BME280;73080;48.768;11.528;2024-01-25T05:53:06;98113.03;;;7.12;69.27
83185;BME280;73080;48.768;11.528;2024-01-25T05:55:31;98120.31;;;7.23;69.20
83185;BME280;73080;48.768;11.528;2024-01-25T05:57:57;98129.63;;;7.39;68.29
83185;BME280;73080;48.768;11.528;2024-01-25T06:00:22;98128.19;;;7.30;68.89
83185;BME280;73080;48.768;11.528;2024-01-25T06:02:47;98136.44;;;7.27;69.23
83185;BME280;73080;48.768;11.528;2024-01-25T06:05:13;98135.09;;;7.09;69.76
83185;BME280;73080;48.768;11.528;2024-01-25T06:07:38;98147.16;;;7.45;68.39
83185;BME280;73080;48.768;11.528;2024-01-25T06:10:03;98161.22;;;7.44;68.11
83185;BME280;73080;48.768;11.528;2024-01-25T06:12:29;98163.13;;;7.63;67.53
83185;BME280;73080;48.768;11.528;2024-01-25T06:14:54;98178.41;;;7.66;67.47
83185;BME280;73080;48.768;11.528;2024-01-25T06:17:19;98193.91;;;7.61;67.07
83185;BME280;73080;48.768;11.528;2024-01-25T06:19:44;98193.50;;;7.64;67.37
83185;BME280;73080;48.768;11.528;2024-01-25T06:22:10;98189.84;;;7.59;67.66
83185;BME280;73080;48.768;11.528;2024-01-25T06:24:35;98188.88;;;7.66;67.68
83185;BME280;73080;48.768;11.528;2024-01-25T06:27:00;98202.50;;;7.55;67.86
83185;BME280;73080;48.768;11.528;2024-01-25T06:29:25;98198.38;;;7.39;68.40
83185;BME280;73080;48.768;11.528;2024-01-25T06:31:50;98199.31;;;7.32;69.06
83185;BME280;73080;48.768;11.528;2024-01-25T06:34:16;98198.88;;;7.22;69.24
83185;BME280;73080;48.768;11.528;2024-01-25T06:36:41;98201.94;;;7.04;69.67
83185;BME280;73080;48.768;11.528;2024-01-25T06:39:06;98210.63;;;7.11;69.60
83185;BME280;73080;48.768;11.528;2024-01-25T06:41:32;98222.84;;;7.04;69.65
83185;BME280;73080;48.768;11.528;2024-01-25T06:43:58;98223.22;;;7.01;69.80
83185;BME280;73080;48.768;11.528;2024-01-25T06:46:23;98223.78;;;6.96;70.04
83185;BME280;73080;48.768;11.528;2024-01-25T06:48:50;98214.94;;;6.97;70.01
83185;BME280;73080;48.768;11.528;2024-01-25T06:51:15;98215.44;;;7.07;69.69
83185;BME280;73080;48.768;11.528;2024-01-25T06:53:40;98215.94;;;6.96;69.82
83185;BME280;73080;48.768;11.528;2024-01-25T06:56:06;98220.69;;;6.86;70.48
83185;BME280;73080;48.768;11.528;2024-01-25T06:58:31;98217.63;;;6.82;71.06
83185;BME280;73080;48.768;11.528;2024-01-25T07:00:56;98222.09;;;6.88;70.57
83185;BME280;73080;48.768;11.528;2024-01-25T07:03:21;98209.59;;;7.05;69.92
83185;BME280;73080;48.768;11.528;2024-01-25T07:05:47;98199.66;;;6.94;70.15
83185;BME280;73080;48.768;11.528;2024-01-25T07:08:12;98213.16;;;6.98;70.13
83185;BME280;73080;48.768;11.528;2024-01-25T07:10:37;98209.78;;;7.04;69.57
83185;BME280;73080;48.768;11.528;2024-01-25T07:13:02;98200.06;;;6.91;70.00
83185;BME280;73080;48.768;11.528;2024-01-25T07:15:28;98184.88;;;7.01;69.47
83185;BME280;73080;48.768;11.528;2024-01-25T07:17:53;98189.16;;;6.87;69.86
83185;BME280;73080;48.768;11.528;2024-01-25T07:20:18;98188.75;;;6.84;69.49
83185;BME280;73080;48.768;11.528;2024-01-25T07:22:43;98177.72;;;6.88;69.55
83185;BME280;73080;48.768;11.528;2024-01-25T07:25:09;98175.69;;;6.84;69.87
83185;BME280;73080;48.768;11.528;2024-01-25T07:27:34;98174.22;;;7.03;69.92
83185;BME280;73080;48.768;11.528;2024-01-25T07:29:59;98181.84;;;6.98;69.63
83185;BME280;73080;48.768;11.528;2024-01-25T07:32:24;98198.69;;;7.23;68.57
83185;BME280;73080;48.768;11.528;2024-01-25T07:34:50;98196.72;;;7.04;68.54
83185;BME280;73080;48.768;11.528;2024-01-25T07:37:15;98194.09;;;7.04;69.18
83185;BME280;73080;48.768;11.528;2024-01-25T07:39:41;98199.56;;;7.09;69.14
83185;BME280;73080;48.768;11.528;2024-01-25T07:42:06;98214.31;;;7.16;69.26
83185;BME280;73080;48.768;11.528;2024-01-25T07:44:31;98209.56;;;6.99;69.85
83185;BME280;73080;48.768;11.528;2024-01-25T07:46:56;98222.72;;;7.12;69.32
83185;BME280;73080;48.768;11.528;2024-01-25T07:49:22;98213.25;;;7.11;69.10
83185;BME280;73080;48.768;11.528;2024-01-25T07:51:47;98224.53;;;6.90;70.02
83185;BME280;73080;48.768;11.528;2024-01-25T07:54:12;98214.88;;;6.91;70.50
83185;BME280;73080;48.768;11.528;2024-01-25T07:56:38;98213.66;;;6.86;70.11
83185;BME280;73080;48.768;11.528;2024-01-25T07:59:03;98214.84;;;7.05;69.12
83185;BME280;73080;48.768;11.528;2024-01-25T08:01:28;98208.50;;;7.21;69.31
83185;BME280;73080;48.768;11.528;2024-01-25T08:03:53;98214.59;;;7.63;67.48
83185;BME280;73080;48.768;11.528;2024-01-25T08:06:19;98214.50;;;7.84;66.62
83185;BME280;73080;48.768;11.528;2024-01-25T08:08:44;98230.00;;;7.86;66.37
83185;BME280;73080;48.768;11.528;2024-01-25T08:11:09;98239.56;;;8.07;65.48
83185;BME280;73080;48.768;11.528;2024-01-25T08:13:34;98243.84;;;8.21;65.00
83185;BME280;73080;48.768;11.528;2024-01-25T08:16:00;98251.75;;;8.34;64.40
83185;BME280;73080;48.768;11.528;2024-01-25T08:18:25;98241.84;;;8.30;64.45
83185;BME280;73080;48.768;11.528;2024-01-25T08:20:50;98238.81;;;8.19;64.84
83185;BME280;73080;48.768;11.528;2024-01-25T08:23:16;98256.41;;;8.45;64.72
83185;BME280;73080;48.768;11.528;2024-01-25T08:25:41;98256.44;;;8.59;64.19
83185;BME280;73080;48.768;11.528;2024-01-25T08:28:06;98255.34;;;8.33;64.42
83185;BME280;73080;48.768;11.528;2024-01-25T08:30:31;98258.84;;;8.47;64.35
83185;BME280;73080;48.768;11.528;2024-01-25T08:32:57;98254.44;;;8.54;63.97
83185;BME280;73080;48.768;11.528;2024-01-25T08:35:22;98249.81;;;8.56;63.72
83185;BME280;73080;48.768;11.528;2024-01-25T08:37:48;98247.00;;;8.64;63.86
83185;BME280;73080;48.768;11.528;2024-01-25T08:40:13;98250.03;;;8.55;64.26
83185;BME280;73080;48.768;11.528;2024-01-25T08:42:39;98251.25;;;8.78;63.50
83185;BME280;73080;48.768;11.528;2024-01-25T08:45:04;98249.84;;;8.76;63.38
83185;BME280;73080;48.768;11.528;2024-01-25T08:47:30;98251.31;;;9.18;62.60
83185;BME280;73080;48.768;11.528;2024-01-25T08:49:55;98259.34;;;9.30;61.94
83185;BME280;73080;48.768;11.528;2024-01-25T08:52:20;98258.13;;;8.86;63.25
83185;BME280;73080;48.768;11.528;2024-01-25T08:54:45;98256.13;;;9.28;61.98
83185;BME280;73080;48.768;11.528;2024-01-25T08:57:11;98268.03;;;9.17;62.44
83185;BME280;73080;48.768;11.528;2024-01-25T08:59:36;98275.66;;;9.65;61.05
83185;BME280;73080;48.768;11.528;2024-01-25T09:02:01;98270.63;;;9.44;61.58
83185;BME280;73080;48.768;11.528;2024-01-25T09:04:26;98279.72;;;9.54;60.95
83185;BME280;73080;48.768;11.528;2024-01-25T09:06:52;98286.72;;;9.87;59.65
83185;BME280;73080;48.768;11.528;2024-01-25T09:09:17;98292.16;;;9.85;60.27
83185;BME280;73080;48.768;11.528;2024-01-25T09:11:42;98298.44;;;9.64;60.20
83185;BME280;73080;48.768;11.528;2024-01-25T09:14:08;98305.13;;;9.60;59.97
83185;BME280;73080;48.768;11.528;2024-01-25T09:16:33;98308.66;;;10.06;59.19
83185;BME280;73080;48.768;11.528;2024-01-25T09:18:58;98299.84;;;9.87;58.62
83185;BME280;73080;48.768;11.528;2024-01-25T09:21:24;98308.06;;;10.04;57.12
83185;BME280;73080;48.768;11.528;2024-01-25T09:23:49;98307.28;;;9.97;57.69
83185;BME280;73080;48.768;11.528;2024-01-25T09:26:15;98317.53;;;10.11;57.55
83185;BME280;73080;48.768;11.528;2024-01-25T09:28:40;98313.66;;;10.21;56.13
83185;BME280;73080;48.768;11.528;2024-01-25T09:31:05;98306.88;;;9.93;55.84
83185;BME280;73080;48.768;11.528;2024-01-25T09:33:30;98320.50;;;10.35;55.21
83185;BME280;73080;48.768;11.528;2024-01-25T09:35:56;98328.97;;;10.43;55.09
83185;BME280;73080;48.768;11.528;2024-01-25T09:38:21;98313.25;;;10.37;53.90
83185;BME280;73080;48.768;11.528;2024-01-25T09:40:46;98322.84;;;10.56;53.60
83185;BME280;73080;48.768;11.528;2024-01-25T09:43:12;98316.34;;;10.72;52.83
83185;BME280;73080;48.768;11.528;2024-01-25T09:45:37;98329.31;;;10.60;53.17
83185;BME280;73080;48.768;11.528;2024-01-25T09:48:03;98323.06;;;10.55;52.91
83185;BME280;73080;48.768;11.528;2024-01-25T09:50:28;98328.22;;;10.30;54.29
83185;BME280;73080;48.768;11.528;2024-01-25T09:52:54;98325.63;;;10.10;53.00
83185;BME280;73080;48.768;11.528;2024-01-25T09:55:22;98330.47;;;10.00;54.27
83185;BME280;73080;48.768;11.528;2024-01-25T09:57:53;98339.19;;;9.74;54.64
83185;BME280;73080;48.768;11.528;2024-01-25T10:00:18;98337.19;;;9.62;55.10
83185;BME280;73080;48.768;11.528;2024-01-25T10:02:43;98341.03;;;9.67;55.65
83185;BME280;73080;48.768;11.528;2024-01-25T10:05:09;98343.22;;;9.76;55.01
83185;BME280;73080;48.768;11.528;2024-01-25T10:07:42;98350.09;;;9.64;56.12
83185;BME280;73080;48.768;11.528;2024-01-25T10:10:08;98343.03;;;9.31;57.01
83185;BME280;73080;48.768;11.528;2024-01-25T10:12:34;98341.97;;;9.06;57.00
83185;BME280;73080;48.768;11.528;2024-01-25T10:14:59;98342.41;;;9.10;57.10
83185;BME280;73080;48.768;11.528;2024-01-25T10:17:25;98339.78;;;9.16;56.00
83185;BME280;73080;48.768;11.528;2024-01-25T10:19:50;98339.19;;;9.27;56.02
83185;BME280;73080;48.768;11.528;2024-01-25T10:22:15;98350.28;;;9.96;55.24
83185;BME280;73080;48.768;11.528;2024-01-25T10:24:41;98354.72;;;9.95;55.00
83185;BME280;73080;48.768;11.528;2024-01-25T10:27:09;98363.59;;;9.87;55.31
83185;BME280;73080;48.768;11.528;2024-01-25T10:29:34;98355.69;;;10.07;54.04
83185;BME280;73080;48.768;11.528;2024-01-25T10:32:01;98355.31;;;10.04;54.55
83185;BME280;73080;48.768;11.528;2024-01-25T10:34:27;98350.88;;;9.91;54.37
83185;BME280;73080;48.768;11.528;2024-01-25T10:36:53;98347.47;;;10.62;53.47
83185;BME280;73080;48.768;11.528;2024-01-25T10:39:21;98335.47;;;10.86;53.16
83185;BME280;73080;48.768;11.528;2024-01-25T10:41:47;98326.72;;;11.48;52.52
83185;BME280;73080;48.768;11.528;2024-01-25T10:44:12;98315.81;;;11.70;50.81
83185;BME280;73080;48.768;11.528;2024-01-25T10:46:38;98321.53;;;11.92;51.11
83185;BME280;73080;48.768;11.528;2024-01-25T10:49:05;98320.78;;;11.60;50.41
83185;BME280;73080;48.768;11.528;2024-01-25T10:51:32;98328.50;;;11.79;48.31
83185;BME280;73080;48.768;11.528;2024-01-25T10:53:58;98339.84;;;11.30;49.28
83185;BME280;73080;48.768;11.528;2024-01-25T10:56:24;98329.53;;;11.53;49.50
83185;BME280;73080;48.768;11.528;2024-01-25T10:58:49;98324.44;;;11.02;50.01
83185;BME280;73080;48.768;11.528;2024-01-25T11:01:16;98321.00;;;10.63;50.64
83185;BME280;73080;48.768;11.528;2024-01-25T11:03:42;98318.22;;;10.58;52.35
83185;BME280;73080;48.768;11.528;2024-01-25T11:06:11;98322.31;;;10.86;51.76
83185;BME280;73080;48.768;11.528;2024-01-25T11:08:37;98323.31;;;10.85;51.22
83185;BME280;73080;48.768;11.528;2024-01-25T11:11:03;98314.69;;;10.13;53.30
83185;BME280;73080;48.768;11.528;2024-01-25T11:13:31;98316.72;;;10.24;53.30
83185;BME280;73080;48.768;11.528;2024-01-25T11:15:56;98314.31;;;10.09;54.35
83185;BME280;73080;48.768;11.528;2024-01-25T11:18:25;98306.06;;;9.99;54.39
83185;BME280;73080;48.768;11.528;2024-01-25T11:20:50;98298.44;;;9.64;55.99
83185;BME280;73080;48.768;11.528;2024-01-25T11:23:16;98300.84;;;9.79;55.13
83185;BME280;73080;48.768;11.528;2024-01-25T11:25:44;98303.28;;;9.74;55.84
83185;BME280;73080;48.768;11.528;2024-01-25T11:28:11;98303.84;;;10.03;55.63
83185;BME280;73080;48.768;11.528;2024-01-25T11:30:36;98301.63;;;9.86;56.21
83185;BME280;73080;48.768;11.528;2024-01-25T11:33:04;98286.06;;;9.98;55.08
83185;BME280;73080;48.768;11.528;2024-01-25T11:35:29;98289.72;;;9.97;55.48
83185;BME280;73080;48.768;11.528;2024-01-25T11:37:54;98291.50;;;10.10;55.71
83185;BME280;73080;48.768;11.528;2024-01-25T11:40:20;98292.00;;;10.45;54.13
83185;BME280;73080;48.768;11.528;2024-01-25T11:42:48;98282.41;;;11.02;53.40
83185;BME280;73080;48.768;11.528;2024-01-25T11:45:14;98277.09;;;11.09;54.06
83185;BME280;73080;48.768;11.528;2024-01-25T11:47:41;98272.22;;;11.37;52.67
83185;BME280;73080;48.768;11.528;2024-01-25T11:50:09;98282.56;;;11.32;50.64
83185;BME280;73080;48.768;11.528;2024-01-25T11:52:35;98282.56;;;11.57;50.98
83185;BME280;73080;48.768;11.528;2024-01-25T11:55:05;98278.25;;;11.13;50.48
83185;BME280;73080;48.768;11.528;2024-01-25T11:57:32;98279.81;;;11.20;51.13
83185;BME280;73080;48.768;11.528;2024-01-25T11:59:58;98276.94;;;11.53;50.35
83185;BME280;73080;48.768;11.528;2024-01-25T12:02:23;98267.38;;;11.09;50.68
83185;BME280;73080;48.768;11.528;2024-01-25T12:04:49;98266.84;;;11.25;49.50
83185;BME280;73080;48.768;11.528;2024-01-25T12:07:15;98262.31;;;10.83;50.31
83185;BME280;73080;48.768;11.528;2024-01-25T12:09:40;98266.22;;;10.73;51.05
83185;BME280;73080;48.768;11.528;2024-01-25T12:12:05;98253.88;;;10.74;50.37
83185;BME280;73080;48.768;11.528;2024-01-25T12:14:31;98247.16;;;11.10;50.26
83185;BME280;73080;48.768;11.528;2024-01-25T12:16:56;98254.25;;;11.09;49.97
83185;BME280;73080;48.768;11.528;2024-01-25T12:19:21;98248.56;;;11.37;50.02
83185;BME280;73080;48.768;11.528;2024-01-25T12:21:47;98249.25;;;11.51;49.25
83185;BME280;73080;48.768;11.528;2024-01-25T12:24:13;98253.06;;;11.30;50.23
83185;BME280;73080;48.768;11.528;2024-01-25T12:26:38;98247.34;;;11.15;49.58
83185;BME280;73080;48.768;11.528;2024-01-25T12:29:03;98251.72;;;11.46;50.42
83185;BME280;73080;48.768;11.528;2024-01-25T12:31:28;98245.06;;;11.18;50.15
83185;BME280;73080;48.768;11.528;2024-01-25T12:33:54;98241.03;;;11.41;49.99
83185;BME280;73080;48.768;11.528;2024-01-25T12:36:19;98245.75;;;11.75;49.00
83185;BME280;73080;48.768;11.528;2024-01-25T12:38:44;98233.78;;;11.79;50.25
83185;BME280;73080;48.768;11.528;2024-01-25T12:41:10;98234.41;;;11.75;50.96
83185;BME280;73080;48.768;11.528;2024-01-25T12:43:35;98229.59;;;11.53;52.32
83185;BME280;73080;48.768;11.528;2024-01-25T12:46:00;98225.56;;;11.51;51.42
83185;BME280;73080;48.768;11.528;2024-01-25T12:48:26;98231.47;;;11.46;51.77